Terminal Aerodrome Forecast
Issued by NWS

Home | Current Version | Previous Version | Text Only | Print | Product List | Glossary On
Versions: 1 2 3 4 5 6 7 8 9 10 11 12 13 14 15
000
FTUS45 KSLC 300544
TAFLGU
TAF
KLGU 300544Z 3006/0106 VRB05KT P6SM SCT060 BKN100
     FM301400 07010KT P6SM BKN070 OVC120
     FM302200 04016G25KT P6SM SCT070
     FM010200 08016G26KT P6SM SCT070=

USA.gov is the U.S. government's official web portal to all federal, state and local government web resources and services.